sensor_id;sensor_type;location;lat;lon;timestamp;temperature;humidity
2453;DHT22;63678;47.994;7.854;2022-12-07T00:00:24;4.90;99.90
2453;DHT22;63678;47.994;7.854;2022-12-07T00:02:56;4.90;99.90
2453;DHT22;63678;47.994;7.854;2022-12-07T00:05:29;4.80;99.90
2453;DHT22;63678;47.994;7.854;2022-12-07T00:08:02;4.90;99.90
2453;DHT22;63678;47.994;7.854;2022-12-07T00:10:34;4.90;99.90
2453;DHT22;63678;47.994;7.854;2022-12-07T00:13:07;4.90;99.90
2453;DHT22;63678;47.994;7.854;2022-12-07T00:15:39;4.90;99.90
2453;DHT22;63678;47.994;7.854;2022-12-07T00:18:11;5.00;99.90
2453;DHT22;63678;47.994;7.854;2022-12-07T00:23:48;4.90;99.90
2453;DHT22;63678;47.994;7.854;2022-12-07T00:26:24;4.90;99.90
2453;DHT22;63678;47.994;7.854;2022-12-07T00:29:00;4.90;99.90
2453;DHT22;63678;47.994;7.854;2022-12-07T00:31:36;4.90;99.90
2453;DHT22;63678;47.994;7.854;2022-12-07T00:34:17;4.90;99.90
2453;DHT22;63678;47.994;7.854;2022-12-07T00:39:23;4.80;99.90
2453;DHT22;63678;47.994;7.854;2022-12-07T00:41:57;4.70;99.90
2453;DHT22;63678;47.994;7.854;2022-12-07T00:44:29;4.70;99.90
2453;DHT22;63678;47.994;7.854;2022-12-07T00:47:01;4.70;99.90
2453;DHT22;63678;47.994;7.854;2022-12-07T00:49:35;4.70;99.90
2453;DHT22;63678;47.994;7.854;2022-12-07T00:52:07;4.70;99.90
2453;DHT22;63678;47.994;7.854;2022-12-07T00:54:40;4.70;99.90
2453;DHT22;63678;47.994;7.854;2022-12-07T00:57:12;4.70;99.90
2453;DHT22;63678;47.994;7.854;2022-12-07T00:59:44;4.70;99.90
2453;DHT22;63678;47.994;7.854;2022-12-07T01:02:17;4.80;99.90
2453;DHT22;63678;47.994;7.854;2022-12-07T01:07:22;4.90;99.90
2453;DHT22;63678;47.994;7.854;2022-12-07T01:09:54;4.90;99.90
2453;DHT22;63678;47.994;7.854;2022-12-07T01:12:27;4.90;99.90
2453;DHT22;63678;47.994;7.854;2022-12-07T01:14:59;4.80;99.90
2453;DHT22;63678;47.994;7.854;2022-12-07T01:17:31;4.80;99.90
2453;DHT22;63678;47.994;7.854;2022-12-07T01:20:04;4.80;99.90
2453;DHT22;63678;47.994;7.854;2022-12-07T01:22:38;4.80;99.90
2453;DHT22;63678;47.994;7.854;2022-12-07T01:25:11;4.80;99.90
2453;DHT22;63678;47.994;7.854;2022-12-07T01:27:44;4.80;99.90
2453;DHT22;63678;47.994;7.854;2022-12-07T01:30:16;4.80;99.90
2453;DHT22;63678;47.994;7.854;2022-12-07T01:32:48;4.90;99.90
2453;DHT22;63678;47.994;7.854;2022-12-07T01:35:21;4.90;99.90
2453;DHT22;63678;47.994;7.854;2022-12-07T01:37:55;4.80;99.90
2453;DHT22;63678;47.994;7.854;2022-12-07T01:43:00;5.00;99.90
2453;DHT22;63678;47.994;7.854;2022-12-07T01:45:42;5.00;99.90
2453;DHT22;63678;47.994;7.854;2022-12-07T01:48:18;5.00;99.90
2453;DHT22;63678;47.994;7.854;2022-12-07T01:51:01;5.00;99.90
2453;DHT22;63678;47.994;7.854;2022-12-07T01:53:43;5.00;99.90
2453;DHT22;63678;47.994;7.854;2022-12-07T01:56:20;5.00;99.90
2453;DHT22;63678;47.994;7.854;2022-12-07T01:58:55;5.00;99.90
2453;DHT22;63678;47.994;7.854;2022-12-07T02:01:29;4.90;99.90
2453;DHT22;63678;47.994;7.854;2022-12-07T02:04:02;4.90;99.90
2453;DHT22;63678;47.994;7.854;2022-12-07T02:06:35;4.90;99.90
2453;DHT22;63678;47.994;7.854;2022-12-07T02:09:08;4.90;99.90
2453;DHT22;63678;47.994;7.854;2022-12-07T02:11:41;4.80;99.90
2453;DHT22;63678;47.994;7.854;2022-12-07T02:14:13;4.80;99.90
2453;DHT22;63678;47.994;7.854;2022-12-07T02:17:41;4.90;99.90
2453;DHT22;63678;47.994;7.854;2022-12-07T02:32:31;4.80;99.90
2453;DHT22;63678;47.994;7.854;2022-12-07T02:35:22;4.80;99.90
2453;DHT22;63678;47.994;7.854;2022-12-07T02:38:03;4.80;99.90
2453;DHT22;63678;47.994;7.854;2022-12-07T02:41:18;4.80;99.90
2453;DHT22;63678;47.994;7.854;2022-12-07T02:43:56;4.80;99.90
2453;DHT22;63678;47.994;7.854;2022-12-07T02:46:38;4.80;99.90
2453;DHT22;63678;47.994;7.854;2022-12-07T02:49:13;4.80;99.90
2453;DHT22;63678;47.994;7.854;2022-12-07T02:51:46;4.70;99.90
2453;DHT22;63678;47.994;7.854;2022-12-07T02:54:20;4.70;99.90
2453;DHT22;63678;47.994;7.854;2022-12-07T03:00:13;4.60;99.90
2453;DHT22;63678;47.994;7.854;2022-12-07T03:11:07;4.50;99.90
2453;DHT22;63678;47.994;7.854;2022-12-07T03:14:06;4.50;99.90
2453;DHT22;63678;47.994;7.854;2022-12-07T03:16:57;4.50;99.90
2453;DHT22;63678;47.994;7.854;2022-12-07T03:19:32;4.50;99.90
2453;DHT22;63678;47.994;7.854;2022-12-07T03:22:09;4.50;99.90
2453;DHT22;63678;47.994;7.854;2022-12-07T03:24:55;4.60;99.90
2453;DHT22;63678;47.994;7.854;2022-12-07T03:27:49;4.50;99.90
2453;DHT22;63678;47.994;7.854;2022-12-07T03:30:34;4.50;99.90
2453;DHT22;63678;47.994;7.854;2022-12-07T03:33:20;4.50;99.90
2453;DHT22;63678;47.994;7.854;2022-12-07T03:36:11;4.40;99.90
2453;DHT22;63678;47.994;7.854;2022-12-07T03:39:16;4.40;99.90
2453;DHT22;63678;47.994;7.854;2022-12-07T03:41:52;4.40;99.90
2453;DHT22;63678;47.994;7.854;2022-12-07T03:44:25;4.40;99.90
2453;DHT22;63678;47.994;7.854;2022-12-07T03:47:05;4.30;99.90
2453;DHT22;63678;47.994;7.854;2022-12-07T03:49:55;4.30;99.90
2453;DHT22;63678;47.994;7.854;2022-12-07T03:52:36;4.40;99.90
2453;DHT22;63678;47.994;7.854;2022-12-07T03:55:19;4.50;99.90
2453;DHT22;63678;47.994;7.854;2022-12-07T03:57:59;4.40;99.90
2453;DHT22;63678;47.994;7.854;2022-12-07T04:00:34;4.40;99.90
2453;DHT22;63678;47.994;7.854;2022-12-07T04:03:08;4.30;99.90
2453;DHT22;63678;47.994;7.854;2022-12-07T04:05:42;4.30;99.90
2453;DHT22;63678;47.994;7.854;2022-12-07T04:08:15;4.30;99.90
2453;DHT22;63678;47.994;7.854;2022-12-07T04:10:47;4.20;99.90
2453;DHT22;63678;47.994;7.854;2022-12-07T04:13:20;4.20;99.90
2453;DHT22;63678;47.994;7.854;2022-12-07T04:15:52;4.20;99.90
2453;DHT22;63678;47.994;7.854;2022-12-07T04:20:57;4.30;99.90
2453;DHT22;63678;47.994;7.854;2022-12-07T04:23:29;4.20;99.90
2453;DHT22;63678;47.994;7.854;2022-12-07T04:26:01;4.20;99.90
2453;DHT22;63678;47.994;7.854;2022-12-07T04:28:34;4.10;99.90
2453;DHT22;63678;47.994;7.854;2022-12-07T04:31:06;4.10;99.90
2453;DHT22;63678;47.994;7.854;2022-12-07T04:33:38;4.00;99.90
2453;DHT22;63678;47.994;7.854;2022-12-07T04:36:11;4.10;99.90
2453;DHT22;63678;47.994;7.854;2022-12-07T04:38:43;4.10;99.90
2453;DHT22;63678;47.994;7.854;2022-12-07T04:41:15;4.10;99.90
2453;DHT22;63678;47.994;7.854;2022-12-07T04:43:48;4.10;99.90
2453;DHT22;63678;47.994;7.854;2022-12-07T04:46:20;4.10;99.90
2453;DHT22;63678;47.994;7.854;2022-12-07T04:48:54;4.10;99.90
2453;DHT22;63678;47.994;7.854;2022-12-07T04:51:29;4.20;99.90
2453;DHT22;63678;47.994;7.854;2022-12-07T04:54:01;4.20;99.90
2453;DHT22;63678;47.994;7.854;2022-12-07T04:56:33;4.20;99.90
2453;DHT22;63678;47.994;7.854;2022-12-07T04:59:10;4.70;99.90
2453;DHT22;63678;47.994;7.854;2022-12-07T05:01:44;4.20;99.90
2453;DHT22;63678;47.994;7.854;2022-12-07T05:04:16;4.20;99.90
2453;DHT22;63678;47.994;7.854;2022-12-07T05:06:49;4.20;99.90
2453;DHT22;63678;47.994;7.854;2022-12-07T05:09:25;4.20;99.90
2453;DHT22;63678;47.994;7.854;2022-12-07T05:11:57;4.10;99.90
2453;DHT22;63678;47.994;7.854;2022-12-07T05:14:30;4.00;99.90
2453;DHT22;63678;47.994;7.854;2022-12-07T05:17:02;4.00;99.90
2453;DHT22;63678;47.994;7.854;2022-12-07T05:19:36;4.00;99.90
2453;DHT22;63678;47.994;7.854;2022-12-07T05:22:08;4.00;99.90
2453;DHT22;63678;47.994;7.854;2022-12-07T05:29:47;4.00;99.90
2453;DHT22;63678;47.994;7.854;2022-12-07T05:37:26;4.00;99.90
2453;DHT22;63678;47.994;7.854;2022-12-07T05:39:58;4.00;99.90
2453;DHT22;63678;47.994;7.854;2022-12-07T05:42:31;4.00;99.90
2453;DHT22;63678;47.994;7.854;2022-12-07T05:45:04;4.00;99.90
2453;DHT22;63678;47.994;7.854;2022-12-07T05:47:37;4.00;99.90
2453;DHT22;63678;47.994;7.854;2022-12-07T05:52:44;3.80;99.90
2453;DHT22;63678;47.994;7.854;2022-12-07T05:57:49;3.80;99.90
2453;DHT22;63678;47.994;7.854;2022-12-07T06:00:40;3.70;99.90
2453;DHT22;63678;47.994;7.854;2022-12-07T06:03:12;3.70;99.90
2453;DHT22;63678;47.994;7.854;2022-12-07T06:05:45;3.70;99.90
2453;DHT22;63678;47.994;7.854;2022-12-07T06:08:18;3.70;99.90
2453;DHT22;63678;47.994;7.854;2022-12-07T06:10:51;3.70;99.90
2453;DHT22;63678;47.994;7.854;2022-12-07T06:13:43;3.60;99.90
2453;DHT22;63678;47.994;7.854;2022-12-07T06:16:18;3.50;99.90
2453;DHT22;63678;47.994;7.854;2022-12-07T06:18:51;3.40;99.90
2453;DHT22;63678;47.994;7.854;2022-12-07T06:21:26;3.40;99.90
2453;DHT22;63678;47.994;7.854;2022-12-07T06:26:31;3.30;99.90
2453;DHT22;63678;47.994;7.854;2022-12-07T06:31:37;3.20;99.90
2453;DHT22;63678;47.994;7.854;2022-12-07T06:34:15;3.10;99.90
2453;DHT22;63678;47.994;7.854;2022-12-07T06:36:50;3.10;99.90
2453;DHT22;63678;47.994;7.854;2022-12-07T06:39:28;3.10;99.90
2453;DHT22;63678;47.994;7.854;2022-12-07T06:44:34;3.10;99.90
2453;DHT22;63678;47.994;7.854;2022-12-07T06:47:07;3.20;99.90
2453;DHT22;63678;47.994;7.854;2022-12-07T06:49:59;3.10;99.90
2453;DHT22;63678;47.994;7.854;2022-12-07T06:52:32;3.10;99.90
2453;DHT22;63678;47.994;7.854;2022-12-07T06:55:05;3.10;99.90
2453;DHT22;63678;47.994;7.854;2022-12-07T06:57:38;3.30;99.90
2453;DHT22;63678;47.994;7.854;2022-12-07T07:00:11;3.30;99.90
2453;DHT22;63678;47.994;7.854;2022-12-07T07:05:26;3.20;99.90
2453;DHT22;63678;47.994;7.854;2022-12-07T07:07:58;3.20;99.90
2453;DHT22;63678;47.994;7.854;2022-12-07T07:13:44;3.10;99.90
2453;DHT22;63678;47.994;7.854;2022-12-07T07:16:17;3.10;99.90
2453;DHT22;63678;47.994;7.854;2022-12-07T07:18:50;2.90;99.90
2453;DHT22;63678;47.994;7.854;2022-12-07T07:21:22;2.90;99.90
2453;DHT22;63678;47.994;7.854;2022-12-07T07:23:54;2.90;99.90
2453;DHT22;63678;47.994;7.854;2022-12-07T07:26:27;2.80;99.90
2453;DHT22;63678;47.994;7.854;2022-12-07T07:28:59;2.70;99.90
2453;DHT22;63678;47.994;7.854;2022-12-07T07:31:31;2.60;99.90
2453;DHT22;63678;47.994;7.854;2022-12-07T07:34:04;2.60;99.90
2453;DHT22;63678;47.994;7.854;2022-12-07T07:36:37;2.60;99.90
2453;DHT22;63678;47.994;7.854;2022-12-07T07:39:10;2.60;99.90
2453;DHT22;63678;47.994;7.854;2022-12-07T07:41:44;2.50;99.90
2453;DHT22;63678;47.994;7.854;2022-12-07T07:44:23;2.40;99.90
2453;DHT22;63678;47.994;7.854;2022-12-07T07:49:35;2.50;99.90
2453;DHT22;63678;47.994;7.854;2022-12-07T07:52:08;2.70;99.90
2453;DHT22;63678;47.994;7.854;2022-12-07T07:57:14;2.80;99.90
2453;DHT22;63678;47.994;7.854;2022-12-07T07:59:52;2.80;99.90
2453;DHT22;63678;47.994;7.854;2022-12-07T08:02:24;2.90;99.90
2453;DHT22;63678;47.994;7.854;2022-12-07T08:04:57;2.90;99.90
2453;DHT22;63678;47.994;7.854;2022-12-07T08:07:29;2.80;99.90
2453;DHT22;63678;47.994;7.854;2022-12-07T08:10:02;2.90;99.90
2453;DHT22;63678;47.994;7.854;2022-12-07T08:12:39;2.90;99.90
2453;DHT22;63678;47.994;7.854;2022-12-07T08:15:33;2.80;99.90
2453;DHT22;63678;47.994;7.854;2022-12-07T08:18:05;2.90;99.90
2453;DHT22;63678;47.994;7.854;2022-12-07T08:20:39;3.10;99.90
2453;DHT22;63678;47.994;7.854;2022-12-07T08:23:11;3.20;99.90
2453;DHT22;63678;47.994;7.854;2022-12-07T08:25:43;3.20;99.90
2453;DHT22;63678;47.994;7.854;2022-12-07T08:30:49;3.50;99.90
2453;DHT22;63678;47.994;7.854;2022-12-07T08:33:21;4.80;99.90
2453;DHT22;63678;47.994;7.854;2022-12-07T08:35:59;6.10;99.90
2453;DHT22;63678;47.994;7.854;2022-12-07T08:38:34;6.00;99.90
2453;DHT22;63678;47.994;7.854;2022-12-07T08:43:40;4.00;99.90
2453;DHT22;63678;47.994;7.854;2022-12-07T08:46:23;3.90;99.90
2453;DHT22;63678;47.994;7.854;2022-12-07T08:49:03;4.10;99.90
2453;DHT22;63678;47.994;7.854;2022-12-07T08:51:38;4.30;99.90
2453;DHT22;63678;47.994;7.854;2022-12-07T08:54:16;4.30;99.90
2453;DHT22;63678;47.994;7.854;2022-12-07T08:56:49;4.60;99.90
2453;DHT22;63678;47.994;7.854;2022-12-07T08:59:30;5.00;99.90
2453;DHT22;63678;47.994;7.854;2022-12-07T09:02:04;5.30;99.90
2453;DHT22;63678;47.994;7.854;2022-12-07T09:04:37;5.90;99.90
2453;DHT22;63678;47.994;7.854;2022-12-07T09:07:11;6.20;99.90
2453;DHT22;63678;47.994;7.854;2022-12-07T09:09:43;6.20;99.90
2453;DHT22;63678;47.994;7.854;2022-12-07T09:12:16;6.40;99.90
2453;DHT22;63678;47.994;7.854;2022-12-07T09:17:24;7.10;99.90
2453;DHT22;63678;47.994;7.854;2022-12-07T09:19:56;6.80;99.90
2453;DHT22;63678;47.994;7.854;2022-12-07T09:22:30;6.50;99.90
2453;DHT22;63678;47.994;7.854;2022-12-07T09:25:04;7.00;99.90
2453;DHT22;63678;47.994;7.854;2022-12-07T09:27:37;7.40;99.90
2453;DHT22;63678;47.994;7.854;2022-12-07T09:30:09;7.40;99.90
2453;DHT22;63678;47.994;7.854;2022-12-07T09:32:42;8.10;99.90
2453;DHT22;63678;47.994;7.854;2022-12-07T09:37:48;8.00;99.90
2453;DHT22;63678;47.994;7.854;2022-12-07T09:40:22;7.50;99.90
2453;DHT22;63678;47.994;7.854;2022-12-07T09:42:59;7.30;99.90
2453;DHT22;63678;47.994;7.854;2022-12-07T09:45:35;7.10;99.90
2453;DHT22;63678;47.994;7.854;2022-12-07T09:48:30;7.40;99.90
2453;DHT22;63678;47.994;7.854;2022-12-07T09:51:03;7.70;99.90
2453;DHT22;63678;47.994;7.854;2022-12-07T09:53:56;8.00;99.90
2453;DHT22;63678;47.994;7.854;2022-12-07T09:56:30;8.00;99.90
2453;DHT22;63678;47.994;7.854;2022-12-07T09:59:03;8.30;99.90
2453;DHT22;63678;47.994;7.854;2022-12-07T10:01:38;8.70;99.90
2453;DHT22;63678;47.994;7.854;2022-12-07T10:04:18;9.40;99.90
2453;DHT22;63678;47.994;7.854;2022-12-07T10:06:51;9.50;99.90
2453;DHT22;63678;47.994;7.854;2022-12-07T10:09:23;10.00;99.90
2453;DHT22;63678;47.994;7.854;2022-12-07T10:14:54;8.10;99.90
2453;DHT22;63678;47.994;7.854;2022-12-07T10:17:41;8.60;99.90
2453;DHT22;63678;47.994;7.854;2022-12-07T10:20:24;8.90;99.90
2453;DHT22;63678;47.994;7.854;2022-12-07T10:23:05;10.20;99.90
2453;DHT22;63678;47.994;7.854;2022-12-07T10:25:40;10.80;99.90
2453;DHT22;63678;47.994;7.854;2022-12-07T10:28:16;10.60;99.90
2453;DHT22;63678;47.994;7.854;2022-12-07T10:31:16;11.40;99.90
2453;DHT22;63678;47.994;7.854;2022-12-07T10:34:36;12.30;99.90
2453;DHT22;63678;47.994;7.854;2022-12-07T10:39:49;12.20;99.90
2453;DHT22;63678;47.994;7.854;2022-12-07T10:42:30;12.00;99.90
2453;DHT22;63678;47.994;7.854;2022-12-07T10:45:12;11.20;99.90
2453;DHT22;63678;47.994;7.854;2022-12-07T10:54:16;9.80;99.90
2453;DHT22;63678;47.994;7.854;2022-12-07T10:57:28;9.20;99.90
2453;DHT22;63678;47.994;7.854;2022-12-07T11:00:34;9.10;99.90
2453;DHT22;63678;47.994;7.854;2022-12-07T11:03:36;9.10;99.90
2453;DHT22;63678;47.994;7.854;2022-12-07T11:06:46;9.00;99.90
2453;DHT22;63678;47.994;7.854;2022-12-07T11:10:12;9.20;99.90
2453;DHT22;63678;47.994;7.854;2022-12-07T11:22:04;9.80;99.90
2453;DHT22;63678;47.994;7.854;2022-12-07T11:25:13;10.30;99.90
2453;DHT22;63678;47.994;7.854;2022-12-07T11:31:17;10.50;99.90
2453;DHT22;63678;47.994;7.854;2022-12-07T11:34:06;10.80;99.90
2453;DHT22;63678;47.994;7.854;2022-12-07T11:42:06;10.60;99.90
2453;DHT22;63678;47.994;7.854;2022-12-07T11:47:48;10.80;98.20
2453;DHT22;63678;47.994;7.854;2022-12-07T11:50:45;11.10;98.40
2453;DHT22;63678;47.994;7.854;2022-12-07T11:53:26;11.50;98.70
2453;DHT22;63678;47.994;7.854;2022-12-07T11:56:20;11.40;98.00
2453;DHT22;63678;47.994;7.854;2022-12-07T11:59:11;11.40;98.10
2453;DHT22;63678;47.994;7.854;2022-12-07T12:07:39;11.60;98.30
2453;DHT22;63678;47.994;7.854;2022-12-07T12:25:54;10.70;98.00
2453;DHT22;63678;47.994;7.854;2022-12-07T12:33:56;10.30;99.20
2453;DHT22;63678;47.994;7.854;2022-12-07T12:39:21;9.70;99.90
2453;DHT22;63678;47.994;7.854;2022-12-07T12:41:56;9.50;99.90
2453;DHT22;63678;47.994;7.854;2022-12-07T12:50:31;9.40;99.90
2453;DHT22;63678;47.994;7.854;2022-12-07T12:53:23;9.50;99.90
2453;DHT22;63678;47.994;7.854;2022-12-07T13:02:21;8.90;99.90
2453;DHT22;63678;47.994;7.854;2022-12-07T13:12:57;8.50;99.90
2453;DHT22;63678;47.994;7.854;2022-12-07T13:16:36;8.50;99.90
2453;DHT22;63678;47.994;7.854;2022-12-07T13:18:47;8.40;99.90
2453;DHT22;63678;47.994;7.854;2022-12-07T13:23:56;8.20;99.90
2453;DHT22;63678;47.994;7.854;2022-12-07T13:29:15;8.10;99.90
2453;DHT22;63678;47.994;7.854;2022-12-07T13:31:51;8.10;99.90
2453;DHT22;63678;47.994;7.854;2022-12-07T13:34:41;8.10;99.90
2453;DHT22;63678;47.994;7.854;2022-12-07T13:37:32;8.10;99.90
2453;DHT22;63678;47.994;7.854;2022-12-07T13:40:20;8.00;99.90
2453;DHT22;63678;47.994;7.854;2022-12-07T13:42:59;8.10;99.90
2453;DHT22;63678;47.994;7.854;2022-12-07T13:45:35;8.80;99.90
2453;DHT22;63678;47.994;7.854;2022-12-07T13:48:50;8.20;99.90
2453;DHT22;63678;47.994;7.854;2022-12-07T13:51:27;8.10;99.90
2453;DHT22;63678;47.994;7.854;2022-12-07T13:54:07;8.00;99.90
2453;DHT22;63678;47.994;7.854;2022-12-07T13:56:41;7.90;99.90
2453;DHT22;63678;47.994;7.854;2022-12-07T13:59:20;8.00;99.90
2453;DHT22;63678;47.994;7.854;2022-12-07T14:01:54;8.00;99.90
2453;DHT22;63678;47.994;7.854;2022-12-07T14:04:37;8.00;99.90
2453;DHT22;63678;47.994;7.854;2022-12-07T14:07:20;8.00;99.90
2453;DHT22;63678;47.994;7.854;2022-12-07T14:10:01;8.00;99.90
2453;DHT22;63678;47.994;7.854;2022-12-07T14:12:36;7.80;99.90
2453;DHT22;63678;47.994;7.854;2022-12-07T14:15:20;8.00;99.90
2453;DHT22;63678;47.994;7.854;2022-12-07T14:17:55;8.00;99.90
2453;DHT22;63678;47.994;7.854;2022-12-07T14:20:36;8.00;99.90
2453;DHT22;63678;47.994;7.854;2022-12-07T14:23:25;8.00;99.90
2453;DHT22;63678;47.994;7.854;2022-12-07T14:26:15;8.00;99.90
2453;DHT22;63678;47.994;7.854;2022-12-07T14:31:24;7.80;99.90
2453;DHT22;63678;47.994;7.854;2022-12-07T14:34:01;7.70;99.90
2453;DHT22;63678;47.994;7.854;2022-12-07T14:41:44;7.60;99.90
2453;DHT22;63678;47.994;7.854;2022-12-07T14:44:23;7.50;99.90
2453;DHT22;63678;47.994;7.854;2022-12-07T14:47:03;7.40;99.90
2453;DHT22;63678;47.994;7.854;2022-12-07T14:49:55;7.40;99.90
2453;DHT22;63678;47.994;7.854;2022-12-07T14:52:33;7.40;99.90
2453;DHT22;63678;47.994;7.854;2022-12-07T14:55:30;7.30;99.90
2453;DHT22;63678;47.994;7.854;2022-12-07T15:03:08;7.10;99.90
2453;DHT22;63678;47.994;7.854;2022-12-07T15:05:41;7.00;99.90
2453;DHT22;63678;47.994;7.854;2022-12-07T15:16:16;6.90;99.90
2453;DHT22;63678;47.994;7.854;2022-12-07T15:21:44;6.80;99.90
2453;DHT22;63678;47.994;7.854;2022-12-07T15:24:16;6.70;99.90
2453;DHT22;63678;47.994;7.854;2022-12-07T15:29:21;6.70;99.90
2453;DHT22;63678;47.994;7.854;2022-12-07T15:31:55;6.70;99.90
2453;DHT22;63678;47.994;7.854;2022-12-07T15:37:11;6.60;99.90
2453;DHT22;63678;47.994;7.854;2022-12-07T15:39:43;6.40;99.90
2453;DHT22;63678;47.994;7.854;2022-12-07T15:42:15;6.30;99.90
2453;DHT22;63678;47.994;7.854;2022-12-07T15:44:47;6.40;99.90
2453;DHT22;63678;47.994;7.854;2022-12-07T15:47:40;6.30;99.90
2453;DHT22;63678;47.994;7.854;2022-12-07T15:50:34;6.10;99.90
2453;DHT22;63678;47.994;7.854;2022-12-07T15:53:07;6.00;99.90
2453;DHT22;63678;47.994;7.854;2022-12-07T15:55:39;5.80;99.90
2453;DHT22;63678;47.994;7.854;2022-12-07T16:03:18;5.40;99.90
2453;DHT22;63678;47.994;7.854;2022-12-07T16:05:51;5.10;99.90
2453;DHT22;63678;47.994;7.854;2022-12-07T16:11:04;4.80;99.90
2453;DHT22;63678;47.994;7.854;2022-12-07T16:16:13;4.60;99.90
2453;DHT22;63678;47.994;7.854;2022-12-07T16:18:47;4.60;99.90
2453;DHT22;63678;47.994;7.854;2022-12-07T16:21:20;4.60;99.90
2453;DHT22;63678;47.994;7.854;2022-12-07T16:23:58;4.50;99.90
2453;DHT22;63678;47.994;7.854;2022-12-07T16:29:04;4.50;99.90
2453;DHT22;63678;47.994;7.854;2022-12-07T16:31:36;4.40;99.90
2453;DHT22;63678;47.994;7.854;2022-12-07T16:36:41;4.30;99.90
2453;DHT22;63678;47.994;7.854;2022-12-07T16:39:34;4.30;99.90
2453;DHT22;63678;47.994;7.854;2022-12-07T16:42:06;4.20;99.90
2453;DHT22;63678;47.994;7.854;2022-12-07T16:44:38;4.20;99.90
2453;DHT22;63678;47.994;7.854;2022-12-07T16:49:44;4.10;99.90
2453;DHT22;63678;47.994;7.854;2022-12-07T16:52:16;4.10;99.90
2453;DHT22;63678;47.994;7.854;2022-12-07T16:54:52;4.10;99.90
2453;DHT22;63678;47.994;7.854;2022-12-07T16:57:24;4.10;99.90
2453;DHT22;63678;47.994;7.854;2022-12-07T16:59:57;3.30;99.90
2453;DHT22;63678;47.994;7.854;2022-12-07T17:02:29;3.90;99.90
2453;DHT22;63678;47.994;7.854;2022-12-07T17:07:35;3.90;99.90
2453;DHT22;63678;47.994;7.854;2022-12-07T17:10:08;4.00;99.90
2453;DHT22;63678;47.994;7.854;2022-12-07T17:12:41;4.00;99.90
2453;DHT22;63678;47.994;7.854;2022-12-07T17:15:13;3.90;99.90
2453;DHT22;63678;47.994;7.854;2022-12-07T17:17:54;3.80;99.90
2453;DHT22;63678;47.994;7.854;2022-12-07T17:20:28;3.70;99.90
2453;DHT22;63678;47.994;7.854;2022-12-07T17:30:38;3.40;99.90
2453;DHT22;63678;47.994;7.854;2022-12-07T17:35:44;4.10;99.90
2453;DHT22;63678;47.994;7.854;2022-12-07T17:40:49;3.40;99.90
2453;DHT22;63678;47.994;7.854;2022-12-07T17:43:22;3.40;99.90
2453;DHT22;63678;47.994;7.854;2022-12-07T17:45:53;3.40;99.90
2453;DHT22;63678;47.994;7.854;2022-12-07T17:48:26;3.40;99.90
2453;DHT22;63678;47.994;7.854;2022-12-07T17:51:02;3.40;99.90
2453;DHT22;63678;47.994;7.854;2022-12-07T17:53:53;3.40;99.90
2453;DHT22;63678;47.994;7.854;2022-12-07T17:59:00;3.60;99.90
2453;DHT22;63678;47.994;7.854;2022-12-07T18:01:32;3.60;99.90
2453;DHT22;63678;47.994;7.854;2022-12-07T18:04:06;3.60;99.90
2453;DHT22;63678;47.994;7.854;2022-12-07T18:06:38;3.70;99.90
2453;DHT22;63678;47.994;7.854;2022-12-07T18:09:11;3.60;99.90
2453;DHT22;63678;47.994;7.854;2022-12-07T18:14:16;3.60;99.90
2453;DHT22;63678;47.994;7.854;2022-12-07T18:16:49;3.50;99.90
2453;DHT22;63678;47.994;7.854;2022-12-07T18:19:21;3.30;99.90
2453;DHT22;63678;47.994;7.854;2022-12-07T18:21:53;3.30;99.90
2453;DHT22;63678;47.994;7.854;2022-12-07T18:24:26;3.30;99.90
2453;DHT22;63678;47.994;7.854;2022-12-07T18:27:07;3.20;99.90
2453;DHT22;63678;47.994;7.854;2022-12-07T18:29:39;3.10;99.90
2453;DHT22;63678;47.994;7.854;2022-12-07T18:32:11;3.00;99.90
2453;DHT22;63678;47.994;7.854;2022-12-07T18:34:44;2.90;99.90
2453;DHT22;63678;47.994;7.854;2022-12-07T18:37:16;2.80;99.90
2453;DHT22;63678;47.994;7.854;2022-12-07T18:42:21;2.70;99.90
2453;DHT22;63678;47.994;7.854;2022-12-07T18:44:54;2.70;99.90
2453;DHT22;63678;47.994;7.854;2022-12-07T18:47:26;2.60;99.90
2453;DHT22;63678;47.994;7.854;2022-12-07T18:49:59;2.50;99.90
2453;DHT22;63678;47.994;7.854;2022-12-07T18:52:33;2.50;99.90
2453;DHT22;63678;47.994;7.854;2022-12-07T18:55:06;2.50;99.90
2453;DHT22;63678;47.994;7.854;2022-12-07T18:57:38;2.40;99.90
2453;DHT22;63678;47.994;7.854;2022-12-07T19:00:11;2.40;99.90
2453;DHT22;63678;47.994;7.854;2022-12-07T19:02:44;2.40;99.90
2453;DHT22;63678;47.994;7.854;2022-12-07T19:05:17;2.30;99.90
2453;DHT22;63678;47.994;7.854;2022-12-07T19:07:49;2.30;99.90
2453;DHT22;63678;47.994;7.854;2022-12-07T19:10:23;2.30;99.90
2453;DHT22;63678;47.994;7.854;2022-12-07T19:20:34;2.20;99.90
2453;DHT22;63678;47.994;7.854;2022-12-07T19:23:07;2.20;99.90
2453;DHT22;63678;47.994;7.854;2022-12-07T19:25:39;2.10;99.90
2453;DHT22;63678;47.994;7.854;2022-12-07T19:28:11;2.20;99.90
2453;DHT22;63678;47.994;7.854;2022-12-07T19:30:44;2.30;99.90
2453;DHT22;63678;47.994;7.854;2022-12-07T19:33:18;2.20;99.90
2453;DHT22;63678;47.994;7.854;2022-12-07T19:35:50;2.20;99.90
2453;DHT22;63678;47.994;7.854;2022-12-07T19:38:23;2.20;99.90
2453;DHT22;63678;47.994;7.854;2022-12-07T19:41:06;2.20;99.90
2453;DHT22;63678;47.994;7.854;2022-12-07T19:46:48;2.30;99.90
2453;DHT22;63678;47.994;7.854;2022-12-07T19:49:23;2.30;99.90
2453;DHT22;63678;47.994;7.854;2022-12-07T19:51:59;2.30;99.90
2453;DHT22;63678;47.994;7.854;2022-12-07T19:54:33;2.30;99.90
2453;DHT22;63678;47.994;7.854;2022-12-07T19:57:06;2.20;99.90
2453;DHT22;63678;47.994;7.854;2022-12-07T19:59:40;2.20;99.90
2453;DHT22;63678;47.994;7.854;2022-12-07T20:02:14;2.10;99.90
2453;DHT22;63678;47.994;7.854;2022-12-07T20:04:47;2.10;99.90
2453;DHT22;63678;47.994;7.854;2022-12-07T20:07:19;2.00;99.90
2453;DHT22;63678;47.994;7.854;2022-12-07T20:09:52;2.00;99.90
2453;DHT22;63678;47.994;7.854;2022-12-07T20:12:24;1.90;99.90
2453;DHT22;63678;47.994;7.854;2022-12-07T20:15:18;1.90;99.90
2453;DHT22;63678;47.994;7.854;2022-12-07T20:17:50;1.90;99.90
2453;DHT22;63678;47.994;7.854;2022-12-07T20:20:23;1.70;99.90
2453;DHT22;63678;47.994;7.854;2022-12-07T20:22:55;1.60;99.90
2453;DHT22;63678;47.994;7.854;2022-12-07T20:25:28;1.60;99.90
2453;DHT22;63678;47.994;7.854;2022-12-07T20:28:00;1.60;99.90
2453;DHT22;63678;47.994;7.854;2022-12-07T20:30:32;1.60;99.90
2453;DHT22;63678;47.994;7.854;2022-12-07T20:33:05;1.70;99.90
2453;DHT22;63678;47.994;7.854;2022-12-07T20:38:10;1.70;99.90
2453;DHT22;63678;47.994;7.854;2022-12-07T20:40:48;1.70;99.90
2453;DHT22;63678;47.994;7.854;2022-12-07T20:43:21;1.70;99.90
2453;DHT22;63678;47.994;7.854;2022-12-07T20:45:54;1.60;99.90
2453;DHT22;63678;47.994;7.854;2022-12-07T20:48:27;1.50;99.90
2453;DHT22;63678;47.994;7.854;2022-12-07T20:51:05;1.50;99.90
2453;DHT22;63678;47.994;7.854;2022-12-07T20:53:38;1.40;99.90
2453;DHT22;63678;47.994;7.854;2022-12-07T20:58:56;1.40;99.90
2453;DHT22;63678;47.994;7.854;2022-12-07T21:04:03;1.40;99.90
2453;DHT22;63678;47.994;7.854;2022-12-07T21:06:36;1.40;99.90
2453;DHT22;63678;47.994;7.854;2022-12-07T21:09:09;1.40;99.90
2453;DHT22;63678;47.994;7.854;2022-12-07T21:11:42;1.40;99.90
2453;DHT22;63678;47.994;7.854;2022-12-07T21:14:15;1.50;99.90
2453;DHT22;63678;47.994;7.854;2022-12-07T21:16:47;1.50;99.90
2453;DHT22;63678;47.994;7.854;2022-12-07T21:19:20;1.50;99.90